createdAt,value
2022-08-17T00:00:43.547Z,97.54
2022-08-17T00:03:10.546Z,96.64
2022-08-17T00:05:41.659Z,96.33
2022-08-17T00:08:10.524Z,97.78
2022-08-17T00:10:39.671Z,96.85
2022-08-17T00:13:12.017Z,97.84
2022-08-17T00:15:39.984Z,98.24
2022-08-17T00:19:01.090Z,98.61
2022-08-17T00:20:58.464Z,99.71
2022-08-17T00:23:27.682Z,99.40
2022-08-17T00:25:56.056Z,99.28
2022-08-17T00:28:23.827Z,99.08
2022-08-17T00:30:53.806Z,98.92
2022-08-17T00:33:26.225Z,99.40
2022-08-17T00:35:54.913Z,99.77
2022-08-17T00:38:23.250Z,99.56
2022-08-17T00:40:55.975Z,100.00
2022-08-17T00:43:32.522Z,100.00
2022-08-17T00:46:03.442Z,100.00
2022-08-17T00:48:36.272Z,100.00
2022-08-17T00:51:08.496Z,100.00
2022-08-17T00:53:40.219Z,100.00
2022-08-17T00:56:13.981Z,100.00
2022-08-17T00:58:42.392Z,100.00
2022-08-17T01:01:11.315Z,100.00
2022-08-17T01:03:41.276Z,100.00
2022-08-17T01:06:11.592Z,100.00
2022-08-17T01:08:40.652Z,100.00
2022-08-17T01:11:09.250Z,100.00
2022-08-17T01:13:41.283Z,100.00
2022-08-17T01:16:18.988Z,100.00
2022-08-17T01:18:49.781Z,100.00
2022-08-17T01:21:24.274Z,100.00
2022-08-17T01:23:54.537Z,100.00
2022-08-17T01:26:23.193Z,100.00
2022-08-17T01:28:54.397Z,100.00
2022-08-17T01:31:25.854Z,100.00
2022-08-17T01:33:53.913Z,100.00
2022-08-17T01:36:22.020Z,100.00
2022-08-17T01:38:49.921Z,100.00
2022-08-17T01:41:20.443Z,100.00
2022-08-17T01:43:51.133Z,100.00
2022-08-17T01:46:23.139Z,100.00
2022-08-17T01:48:51.627Z,100.00
2022-08-17T01:51:21.137Z,100.00
2022-08-17T01:53:52.122Z,100.00
2022-08-17T01:56:23.099Z,100.00
2022-08-17T01:58:51.828Z,100.00
2022-08-17T02:01:21.491Z,100.00
2022-08-17T02:03:54.532Z,100.00
2022-08-17T02:06:31.365Z,100.00
2022-08-17T02:09:02.708Z,100.00
2022-08-17T02:11:34.869Z,100.00
2022-08-17T02:14:04.093Z,100.00
2022-08-17T02:16:37.906Z,100.00
2022-08-17T02:20:10.300Z,100.00
2022-08-17T02:22:40.010Z,100.00
2022-08-17T02:25:10.451Z,100.00
2022-08-17T02:27:41.821Z,100.00
2022-08-17T02:30:59.148Z,100.00
2022-08-17T02:33:04.026Z,100.00
2022-08-17T02:35:34.063Z,100.00
2022-08-17T02:38:02.107Z,100.00
2022-08-17T02:40:36.123Z,100.00
2022-08-17T02:43:06.190Z,100.00
2022-08-17T02:45:34.294Z,100.00
2022-08-17T02:48:02.182Z,100.00
2022-08-17T02:50:31.197Z,100.00
2022-08-17T02:53:02.286Z,100.00
2022-08-17T02:55:33.695Z,100.00
2022-08-17T02:58:01.793Z,100.00
2022-08-17T03:00:35.165Z,100.00
2022-08-17T03:03:05.833Z,100.00
2022-08-17T03:05:36.378Z,100.00
2022-08-17T03:08:07.412Z,100.00
2022-08-17T03:10:40.883Z,100.00
2022-08-17T03:13:09.366Z,100.00
2022-08-17T03:15:40.625Z,100.00
2022-08-17T03:18:09.340Z,100.00
2022-08-17T03:20:47.372Z,100.00
2022-08-17T03:23:15.893Z,100.00
2022-08-17T03:25:46.429Z,100.00
2022-08-17T03:28:14.275Z,100.00
2022-08-17T03:31:46.341Z,100.00
2022-08-17T03:34:16.393Z,100.00
2022-08-17T03:36:45.018Z,100.00
2022-08-17T03:39:13.135Z,100.00
2022-08-17T03:41:41.011Z,100.00
2022-08-17T03:44:08.723Z,100.00
2022-08-17T03:46:54.462Z,100.00
2022-08-17T03:49:41.457Z,100.00
2022-08-17T03:52:26.580Z,100.00
2022-08-17T03:55:12.140Z,100.00
2022-08-17T03:57:40.736Z,100.00
2022-08-17T04:00:09.303Z,100.00
2022-08-17T04:02:38.217Z,100.00
2022-08-17T04:05:08.030Z,100.00
2022-08-17T04:07:36.041Z,100.00
2022-08-17T04:10:05.317Z,100.00
2022-08-17T04:12:45.245Z,100.00
2022-08-17T04:15:14.039Z,100.00
2022-08-17T04:17:44.250Z,100.00
2022-08-17T04:20:15.121Z,100.00
2022-08-17T04:22:57.291Z,100.00
2022-08-17T04:25:25.529Z,100.00
2022-08-17T04:27:53.179Z,100.00
2022-08-17T04:30:22.732Z,100.00
2022-08-17T04:33:10.544Z,100.00
2022-08-17T04:35:41.707Z,100.00
2022-08-17T04:38:11.071Z,100.00
2022-08-17T04:40:57.428Z,100.00
2022-08-17T04:43:27.249Z,100.00
2022-08-17T04:45:57.818Z,100.00
2022-08-17T04:48:35.237Z,100.00
2022-08-17T04:51:10.298Z,100.00
2022-08-17T04:53:39.037Z,100.00
2022-08-17T04:56:11.830Z,100.00
2022-08-17T04:58:44.809Z,100.00
2022-08-17T05:01:12.921Z,100.00
2022-08-17T05:03:42.107Z,100.00
2022-08-17T05:06:14.722Z,100.00
2022-08-17T05:08:42.633Z,100.00
2022-08-17T05:11:12.107Z,100.00
2022-08-17T05:13:39.743Z,100.00
2022-08-17T05:16:08.966Z,100.00
2022-08-17T05:18:38.922Z,100.00
2022-08-17T05:21:08.424Z,100.00
2022-08-17T05:23:42.874Z,100.00
2022-08-17T05:26:25.831Z,100.00
2022-08-17T05:28:59.634Z,100.00
2022-08-17T05:31:29.377Z,100.00
2022-08-17T05:33:57.886Z,100.00
2022-08-17T05:36:42.368Z,100.00
2022-08-17T05:39:16.898Z,100.00
2022-08-17T05:41:47.963Z,100.00
2022-08-17T05:44:16.070Z,100.00
2022-08-17T05:46:48.618Z,99.02
2022-08-17T05:49:19.063Z,98.43
2022-08-17T05:52:02.660Z,96.23
2022-08-17T05:54:39.931Z,96.44
2022-08-17T05:57:18.066Z,95.22
2022-08-17T05:59:54.312Z,94.19
2022-08-17T06:02:26.538Z,96.22
2022-08-17T06:05:12.222Z,93.06
2022-08-17T06:07:48.026Z,92.13
2022-08-17T06:10:21.737Z,90.73
2022-08-17T06:12:57.737Z,92.08
2022-08-17T06:15:31.918Z,91.17
2022-08-17T06:18:02.173Z,91.69
2022-08-17T06:20:37.373Z,89.79
2022-08-17T06:23:08.127Z,89.48
2022-08-17T06:25:41.935Z,88.72
2022-08-17T06:28:14.205Z,89.68
2022-08-17T06:30:59.560Z,88.31
2022-08-17T06:33:34.551Z,88.26
2022-08-17T06:36:14.592Z,90.52
2022-08-17T06:38:50.873Z,88.24
2022-08-17T06:42:54.861Z,88.32
2022-08-17T06:45:15.890Z,89.76
2022-08-17T06:47:47.403Z,90.39
2022-08-17T06:50:20.829Z,87.25
2022-08-17T06:52:53.957Z,88.19
2022-08-17T06:55:27.469Z,87.26
2022-08-17T06:57:59.088Z,88.17
2022-08-17T07:00:33.493Z,85.78
2022-08-17T07:03:06.747Z,84.65
2022-08-17T07:05:38.732Z,83.94
2022-08-17T07:08:11.627Z,82.89
2022-08-17T07:10:43.042Z,82.03
2022-08-17T07:13:29.653Z,80.93
2022-08-17T07:16:07.761Z,81.49
2022-08-17T07:18:35.541Z,79.13
2022-08-17T07:21:17.565Z,78.18
2022-08-17T07:23:57.284Z,78.44
2022-08-17T07:26:25.769Z,75.48
2022-08-17T07:28:56.105Z,74.48
2022-08-17T07:31:27.299Z,73.72
2022-08-17T07:34:05.597Z,73.50
2022-08-17T07:36:34.811Z,72.35
2022-08-17T07:39:05.247Z,71.92
2022-08-17T07:41:57.490Z,69.73
2022-08-17T07:44:24.445Z,68.95
2022-08-17T07:47:12.528Z,69.49
2022-08-17T07:49:41.812Z,69.54
2022-08-17T07:52:47.873Z,69.12
2022-08-17T07:55:00.510Z,68.99
2022-08-17T07:57:35.434Z,68.27
2022-08-17T08:00:17.146Z,69.43
2022-08-17T08:03:01.617Z,65.51
2022-08-17T08:05:49.766Z,70.13
2022-08-17T08:08:23.986Z,66.29
2022-08-17T08:11:00.703Z,66.41
2022-08-17T08:13:30.409Z,66.67
2022-08-17T08:16:14.434Z,67.62
2022-08-17T08:18:55.517Z,66.42
2022-08-17T08:21:34.836Z,66.47
2022-08-17T08:24:16.753Z,65.24
2022-08-17T08:26:49.113Z,66.21
2022-08-17T08:29:23.281Z,66.15
2022-08-17T08:32:04.661Z,65.33
2022-08-17T08:35:00.538Z,63.81
2022-08-17T08:37:42.707Z,64.73
2022-08-17T08:40:25.107Z,63.69
2022-08-17T08:42:59.983Z,64.31
2022-08-17T08:45:33.461Z,65.17
2022-08-17T08:48:12.825Z,63.73
2022-08-17T08:51:05.834Z,63.46
2022-08-17T08:53:41.478Z,62.15
2022-08-17T08:56:12.739Z,60.13
2022-08-17T08:58:50.803Z,59.77
2022-08-17T09:01:22.814Z,60.72
2022-08-17T09:04:23.403Z,60.30
2022-08-17T09:07:03.837Z,58.31
2022-08-17T09:09:53.365Z,58.36
2022-08-17T09:12:31.619Z,58.41
2022-08-17T09:15:08.304Z,56.45
2022-08-17T09:17:45.119Z,58.12
2022-08-17T09:20:28.154Z,56.53
2022-08-17T09:23:06.527Z,56.12
2022-08-17T09:25:45.365Z,54.50
2022-08-17T09:28:19.261Z,55.20
2022-08-17T09:30:49.731Z,54.71
2022-08-17T09:33:22.857Z,57.53
2022-08-17T09:35:55.019Z,55.40
2022-08-17T09:38:32.641Z,54.67
2022-08-17T09:41:04.329Z,55.28
2022-08-17T09:43:39.238Z,54.76
2022-08-17T09:46:12.572Z,53.07
2022-08-17T09:48:43.673Z,54.08
2022-08-17T09:51:16.755Z,52.15
2022-08-17T09:53:45.903Z,52.35
2022-08-17T09:56:25.399Z,51.46
2022-08-17T09:59:38.598Z,52.64
2022-08-17T10:02:21.913Z,52.20
2022-08-17T10:04:55.557Z,52.97
2022-08-17T10:07:30.453Z,52.69
2022-08-17T10:10:05.259Z,49.93
2022-08-17T10:12:38.244Z,48.70
2022-08-17T10:15:14.991Z,49.01
2022-08-17T10:17:56.500Z,48.61
2022-08-17T10:20:27.750Z,51.80
2022-08-17T10:23:19.369Z,52.32
2022-08-17T10:26:08.703Z,50.10
2022-08-17T10:28:40.465Z,55.29
2022-08-17T10:31:33.673Z,55.70
2022-08-17T10:34:08.632Z,53.39
2022-08-17T10:36:46.140Z,54.08
2022-08-17T10:39:22.157Z,57.01
2022-08-17T10:41:55.692Z,55.08
2022-08-17T10:44:38.520Z,56.15
2022-08-17T10:47:11.835Z,56.30
2022-08-17T10:49:48.137Z,58.67
2022-08-17T10:52:48.507Z,55.06
2022-08-17T10:55:19.132Z,54.16
2022-08-17T10:57:50.383Z,53.64
2022-08-17T11:00:58.415Z,53.55
2022-08-17T11:03:27.040Z,52.06
2022-08-17T11:06:02.295Z,53.94
2022-08-17T11:09:01.567Z,54.09
2022-08-17T11:11:43.087Z,54.96
2022-08-17T11:14:26.251Z,54.39
2022-08-17T11:17:07.613Z,55.46
2022-08-17T11:19:47.238Z,58.47
2022-08-17T11:22:45.207Z,55.38
2022-08-17T11:25:15.935Z,53.39
2022-08-17T11:27:45.509Z,52.27
2022-08-17T11:30:17.421Z,51.46
2022-08-17T11:32:54.316Z,53.35
2022-08-17T11:35:31.472Z,53.27
2022-08-17T11:38:16.067Z,51.44
2022-08-17T11:41:04.227Z,51.33
2022-08-17T11:44:02.032Z,49.43
2022-08-17T11:46:59.187Z,49.92
2022-08-17T11:49:55.656Z,53.17
2022-08-17T11:52:41.704Z,50.35
2022-08-17T11:55:52.879Z,48.81
2022-08-17T11:58:38.595Z,51.19
2022-08-17T12:01:07.182Z,52.04
2022-08-17T12:03:54.451Z,51.50
2022-08-17T12:06:42.934Z,52.70
2022-08-17T12:09:15.843Z,52.80
2022-08-17T12:11:56.247Z,54.04
2022-08-17T12:15:08.135Z,55.12
2022-08-17T12:17:40.555Z,56.12
2022-08-17T12:20:15.230Z,55.12
2022-08-17T12:22:50.337Z,56.12
2022-08-17T12:25:22.653Z,56.62
2022-08-17T12:28:04.804Z,57.10
2022-08-17T12:30:33.882Z,57.08
2022-08-17T12:33:02.191Z,55.26
2022-08-17T12:35:35.354Z,56.53
2022-08-17T12:38:06.589Z,58.22
2022-08-17T12:40:55.612Z,57.50
2022-08-17T12:43:31.196Z,58.69
2022-08-17T12:46:01.161Z,56.01
2022-08-17T12:48:59.389Z,60.34
2022-08-17T12:51:30.325Z,58.80
2022-08-17T12:53:58.032Z,60.87
2022-08-17T12:56:26.171Z,62.28
2022-08-17T12:58:56.714Z,63.89
2022-08-17T13:01:25.129Z,66.47
2022-08-17T13:03:57.309Z,66.20
2022-08-17T13:06:32.341Z,66.61
2022-08-17T13:09:10.455Z,64.44
2022-08-17T13:11:48.747Z,65.57
2022-08-17T13:14:18.550Z,63.96
2022-08-17T13:16:51.618Z,62.31
2022-08-17T13:19:39.840Z,60.88
2022-08-17T13:22:12.445Z,62.14
2022-08-17T13:24:53.100Z,60.36
2022-08-17T13:27:23.331Z,62.10
2022-08-17T13:29:57.353Z,59.12
2022-08-17T13:32:36.127Z,60.25
2022-08-17T13:35:42.895Z,62.52
2022-08-17T13:38:15.901Z,61.60
2022-08-17T13:40:51.442Z,61.93
2022-08-17T13:43:43.885Z,61.61
2022-08-17T13:46:17.625Z,61.72
2022-08-17T13:48:45.471Z,59.82
2022-08-17T13:51:26.265Z,63.93
2022-08-17T13:54:07.085Z,59.54
2022-08-17T13:56:39.674Z,58.22
2022-08-17T13:59:11.264Z,57.67
2022-08-17T14:01:41.167Z,54.58
2022-08-17T14:04:11.186Z,53.63
2022-08-17T14:06:51.943Z,52.64
2022-08-17T14:09:26.641Z,45.33
2022-08-17T14:11:55.613Z,44.26
2022-08-17T14:14:24.096Z,41.42
2022-08-17T14:16:51.949Z,42.09
2022-08-17T14:19:21.802Z,39.10
2022-08-17T14:21:49.873Z,39.46
2022-08-17T14:24:24.266Z,39.23
2022-08-17T14:26:53.149Z,39.35
2022-08-17T14:29:21.204Z,42.73
2022-08-17T14:31:53.226Z,45.28
2022-08-17T14:34:22.605Z,39.56
2022-08-17T14:36:51.057Z,43.30
2022-08-17T14:39:20.103Z,39.73
2022-08-17T14:41:49.966Z,40.57
2022-08-17T14:44:17.785Z,42.89
2022-08-17T14:46:46.153Z,42.54
2022-08-17T14:49:15.601Z,40.57
2022-08-17T14:51:43.912Z,39.22
2022-08-17T14:54:33.632Z,38.40
2022-08-17T14:57:23.383Z,37.97
2022-08-17T14:59:54.797Z,36.93
2022-08-17T15:02:30.142Z,36.03
2022-08-17T15:06:02.942Z,35.12
2022-08-17T15:08:31.713Z,36.81
2022-08-17T15:10:59.523Z,36.65
2022-08-17T15:13:28.620Z,35.03
2022-08-17T15:15:56.691Z,36.46
2022-08-17T15:18:24.923Z,39.48
2022-08-17T15:20:52.912Z,39.48
2022-08-17T15:23:23.884Z,40.09
2022-08-17T15:25:53.633Z,38.74
2022-08-17T15:28:22.717Z,41.11
2022-08-17T15:30:52.597Z,44.38
2022-08-17T15:33:29.322Z,45.07
2022-08-17T15:35:59.628Z,50.34
2022-08-17T15:38:28.186Z,51.57
2022-08-17T15:40:57.630Z,55.89
2022-08-17T15:43:28.210Z,58.58
2022-08-17T15:46:01.067Z,58.97
2022-08-17T15:48:40.850Z,59.50
2022-08-17T15:51:13.826Z,62.12
2022-08-17T15:53:43.220Z,64.34
2022-08-17T15:56:11.578Z,65.31
2022-08-17T15:58:40.045Z,65.81
2022-08-17T16:01:15.128Z,67.51
2022-08-17T16:04:04.096Z,67.15
2022-08-17T16:06:34.653Z,66.93
2022-08-17T16:09:02.496Z,67.29
2022-08-17T16:11:31.318Z,68.06
2022-08-17T16:13:59.138Z,67.74
2022-08-17T16:16:31.453Z,63.94
2022-08-17T16:18:59.458Z,57.21
2022-08-17T16:21:29.663Z,56.42
2022-08-17T16:24:02.249Z,54.67
2022-08-17T16:26:31.372Z,51.80
2022-08-17T16:29:00.969Z,56.13
2022-08-17T16:31:30.221Z,57.76
2022-08-17T16:34:17.745Z,59.11
2022-08-17T16:36:53.608Z,61.49
2022-08-17T16:39:24.864Z,61.83
2022-08-17T16:41:52.664Z,65.68
2022-08-17T16:44:21.771Z,66.37
2022-08-17T16:46:51.389Z,66.69
2022-08-17T16:49:35.333Z,68.50
2022-08-17T16:52:10.362Z,69.44
2022-08-17T16:54:40.518Z,69.02
2022-08-17T16:57:08.241Z,70.22
2022-08-17T16:59:40.935Z,69.66
2022-08-17T17:02:15.526Z,70.95
2022-08-17T17:04:48.639Z,69.17
2022-08-17T17:07:34.739Z,68.77
2022-08-17T17:10:06.165Z,69.11
2022-08-17T17:13:00.923Z,70.07
2022-08-17T17:15:22.475Z,72.41
2022-08-17T17:17:53.558Z,72.71
2022-08-17T17:20:25.961Z,72.02
2022-08-17T17:23:05.637Z,72.08
2022-08-17T17:25:37.292Z,72.85
2022-08-17T17:28:10.035Z,72.53
2022-08-17T17:30:50.570Z,70.87
2022-08-17T17:33:22.559Z,72.30
2022-08-17T17:35:52.659Z,73.10
2022-08-17T17:38:23.278Z,74.16
2022-08-17T17:41:02.352Z,74.90
2022-08-17T17:43:39.752Z,74.67
2022-08-17T17:46:27.522Z,76.24
2022-08-17T17:48:59.289Z,75.83
2022-08-17T17:52:06.548Z,75.81
2022-08-17T17:54:32.517Z,76.23
2022-08-17T17:57:04.490Z,76.21
2022-08-17T17:59:43.761Z,77.27
2022-08-17T18:02:37.273Z,77.03
2022-08-17T18:05:11.982Z,77.80
2022-08-17T18:07:46.460Z,79.13
2022-08-17T18:10:29.297Z,79.27
2022-08-17T18:13:03.735Z,79.33
2022-08-17T18:15:36.063Z,79.59
2022-08-17T18:18:37.982Z,80.03
2022-08-17T18:21:16.895Z,79.54
2022-08-17T18:23:49.587Z,80.21
2022-08-17T18:26:37.467Z,81.38
2022-08-17T18:29:15.240Z,81.32
2022-08-17T18:31:42.903Z,80.80
2022-08-17T18:34:43.786Z,81.73
2022-08-17T18:37:16.025Z,81.65
2022-08-17T18:39:47.219Z,81.65
2022-08-17T18:42:25.697Z,81.61
2022-08-17T18:44:55.597Z,81.86
2022-08-17T18:47:25.873Z,81.75
2022-08-17T18:49:57.976Z,82.50
2022-08-17T18:52:29.028Z,82.77
2022-08-17T18:55:08.473Z,82.90
2022-08-17T18:57:38.313Z,82.27
2022-08-17T19:00:13.132Z,83.12
2022-08-17T19:02:51.473Z,82.94
2022-08-17T19:05:32.704Z,83.54
2022-08-17T19:10:59.154Z,83.53
2022-08-17T19:13:32.312Z,83.34
2022-08-17T19:16:10.132Z,84.03
2022-08-17T19:18:45.262Z,84.14
2022-08-17T19:21:16.312Z,84.71
2022-08-17T19:23:53.943Z,84.92
2022-08-17T19:26:54.799Z,85.20
2022-08-17T19:29:19.618Z,85.31
2022-08-17T19:31:50.117Z,85.88
2022-08-17T19:34:33.128Z,85.44
2022-08-17T19:37:06.752Z,86.86
2022-08-17T19:39:40.162Z,86.96
2022-08-17T19:42:13.576Z,87.32
2022-08-17T19:44:49.724Z,87.42
2022-08-17T19:47:50.946Z,87.94
2022-08-17T19:50:18.920Z,88.04
2022-08-17T19:52:52.875Z,89.06
2022-08-17T19:55:31.428Z,88.95
2022-08-17T19:58:17.794Z,89.60
2022-08-17T20:00:50.340Z,89.81
2022-08-17T20:03:23.116Z,90.60
2022-08-17T20:08:46.201Z,90.26
2022-08-17T20:11:18.390Z,90.33
2022-08-17T20:13:50.993Z,91.12
2022-08-17T20:16:19.596Z,92.67
2022-08-17T20:18:53.356Z,93.52
2022-08-17T20:21:25.797Z,92.88
2022-08-17T20:23:56.060Z,94.50
2022-08-17T20:26:27.500Z,93.78
2022-08-17T20:29:37.715Z,94.38
2022-08-17T20:32:16.328Z,94.71
2022-08-17T20:34:46.798Z,94.54
2022-08-17T20:37:27.877Z,93.70
2022-08-17T20:40:21.755Z,95.24
2022-08-17T20:42:49.645Z,95.09
2022-08-17T20:46:02.082Z,96.63
2022-08-17T20:48:39.148Z,96.41
2022-08-17T20:51:20.290Z,97.95
2022-08-17T20:54:06.855Z,97.75
2022-08-17T20:56:48.956Z,98.06
2022-08-17T20:59:50.144Z,98.51
2022-08-17T21:02:21.694Z,99.80
2022-08-17T21:05:06.966Z,100.00
2022-08-17T21:07:52.923Z,100.00
2022-08-17T21:10:31.930Z,100.00
2022-08-17T21:13:05.904Z,100.00
2022-08-17T21:15:40.395Z,100.00
2022-08-17T21:18:13.926Z,100.00
2022-08-17T21:21:01.456Z,100.00
2022-08-17T21:23:45.519Z,100.00
2022-08-17T21:26:28.113Z,100.00
2022-08-17T21:29:29.953Z,100.00
2022-08-17T21:32:19.066Z,100.00
2022-08-17T21:35:18.575Z,100.00
2022-08-17T21:37:49.119Z,100.00
2022-08-17T21:40:25.422Z,100.00
2022-08-17T21:42:55.681Z,100.00
2022-08-17T21:45:27.357Z,100.00
2022-08-17T21:48:09.516Z,100.00
2022-08-17T21:50:37.836Z,100.00
2022-08-17T21:53:09.078Z,100.00
2022-08-17T21:55:37.571Z,100.00
2022-08-17T21:58:14.569Z,100.00
2022-08-17T22:00:44.127Z,100.00
2022-08-17T22:03:24.720Z,100.00
2022-08-17T22:05:52.701Z,100.00
2022-08-17T22:08:24.140Z,100.00
2022-08-17T22:10:57.821Z,100.00
2022-08-17T22:13:29.445Z,100.00
2022-08-17T22:16:15.441Z,100.00
2022-08-17T22:18:58.267Z,100.00
2022-08-17T22:21:26.426Z,100.00
2022-08-17T22:24:07.125Z,100.00
2022-08-17T22:26:59.851Z,100.00
2022-08-17T22:29:53.128Z,100.00
2022-08-17T22:32:34.978Z,100.00
2022-08-17T22:35:28.431Z,100.00
2022-08-17T22:37:56.328Z,100.00
2022-08-17T22:40:31.521Z,100.00
2022-08-17T22:43:00.574Z,100.00
2022-08-17T22:45:29.728Z,100.00
2022-08-17T22:47:58.644Z,100.00
2022-08-17T22:50:29.361Z,100.00
2022-08-17T22:53:16.787Z,100.00
2022-08-17T22:56:10.539Z,100.00
2022-08-17T22:59:01.430Z,100.00
2022-08-17T23:01:32.592Z,100.00
2022-08-17T23:04:02.416Z,100.00
2022-08-17T23:06:32.416Z,100.00
2022-08-17T23:09:03.825Z,100.00
2022-08-17T23:11:50.066Z,100.00
2022-08-17T23:14:19.816Z,100.00
2022-08-17T23:16:47.788Z,100.00
2022-08-17T23:19:17.393Z,100.00
2022-08-17T23:21:46.163Z,100.00
2022-08-17T23:24:16.584Z,100.00
2022-08-17T23:26:46.647Z,100.00
2022-08-17T23:29:14.240Z,100.00
2022-08-17T23:31:43.157Z,100.00
2022-08-17T23:34:14.576Z,100.00
2022-08-17T23:36:52.958Z,100.00
2022-08-17T23:39:24.314Z,100.00
2022-08-17T23:41:54.037Z,100.00
2022-08-17T23:44:23.627Z,100.00
2022-08-17T23:46:52.123Z,100.00
2022-08-17T23:49:20.188Z,100.00
2022-08-17T23:51:49.201Z,100.00
2022-08-17T23:54:21.775Z,100.00
2022-08-17T23:56:49.551Z,100.00
2022-08-17T23:59:21.062Z,100.00
